createdAt,value
2022-12-07T00:00:02.964Z,1004.74
2022-12-07T00:00:33.781Z,1004.74
2022-12-07T00:01:05.476Z,1005.01
2022-12-07T00:01:34.753Z,1004.84
2022-12-07T00:01:53.596Z,1004.84
2022-12-07T00:02:35.649Z,1004.91
2022-12-07T00:02:57.494Z,1004.91
2022-12-07T00:03:29.612Z,1004.91
2022-12-07T00:04:01.526Z,1004.84
2022-12-07T00:04:33.562Z,1004.84
2022-12-07T00:05:06.555Z,1004.64
2022-12-07T00:05:34.987Z,1004.64
2022-12-07T00:05:54.463Z,1004.64
2022-12-07T00:06:25.451Z,1004.64
2022-12-07T00:06:42.693Z,1004.64
2022-12-07T00:07:13.578Z,1004.64
2022-12-07T00:07:34.914Z,1004.74
2022-12-07T00:08:02.243Z,1004.74
2022-12-07T00:08:33.520Z,1004.74
2022-12-07T00:09:06.424Z,1004.74
2022-12-07T00:09:33.799Z,1004.74
2022-12-07T00:09:53.510Z,1004.74
2022-12-07T00:10:25.609Z,1004.74
2022-12-07T00:10:58.222Z,1004.74
2022-12-07T00:11:29.531Z,1004.74
2022-12-07T00:12:01.432Z,1004.64
2022-12-07T00:12:33.532Z,1004.84
2022-12-07T00:13:05.585Z,1004.84
2022-12-07T00:13:34.588Z,1004.84
2022-12-07T00:13:53.489Z,1004.84
2022-12-07T00:14:26.466Z,1004.84
2022-12-07T00:14:57.592Z,1004.54
2022-12-07T00:15:30.555Z,1004.54
2022-12-07T00:16:01.535Z,1004.74
2022-12-07T00:16:34.680Z,1004.64
2022-12-07T00:17:05.558Z,1004.64
2022-12-07T00:17:33.736Z,1004.74
2022-12-07T00:17:53.491Z,1004.74
2022-12-07T00:18:25.461Z,1004.74
2022-12-07T00:18:58.325Z,1004.91
2022-12-07T00:19:29.561Z,1004.91
2022-12-07T00:20:02.947Z,1004.74
2022-12-07T00:20:34.272Z,1004.64
2022-12-07T00:21:06.581Z,1004.64
2022-12-07T00:21:34.472Z,1004.44
2022-12-07T00:21:53.474Z,1004.44
2022-12-07T00:22:25.542Z,1004.44
2022-12-07T00:22:57.594Z,1004.54
2022-12-07T00:23:29.491Z,1004.54
2022-12-07T00:24:01.468Z,1004.64
2022-12-07T00:24:33.558Z,1004.54
2022-12-07T00:25:05.670Z,1004.54
2022-12-07T00:25:33.898Z,1004.54
2022-12-07T00:25:53.620Z,1004.54
2022-12-07T00:26:26.601Z,1004.54
2022-12-07T00:26:57.538Z,1004.64
2022-12-07T00:27:30.338Z,1004.64
2022-12-07T00:28:01.454Z,1004.64
2022-12-07T00:28:34.416Z,1004.64
2022-12-07T00:29:05.534Z,1004.64
2022-12-07T00:29:33.880Z,1004.33
2022-12-07T00:29:53.502Z,1004.33
2022-12-07T00:30:25.736Z,1004.33
2022-12-07T00:30:58.265Z,1004.44
2022-12-07T00:31:29.511Z,1004.44
2022-12-07T00:32:02.350Z,1004.54
2022-12-07T00:32:33.601Z,1004.54
2022-12-07T00:33:22.378Z,1004.54
2022-12-07T00:33:39.525Z,1004.54
2022-12-07T00:34:10.024Z,1004.54
2022-12-07T00:34:33.745Z,1004.44
2022-12-07T00:34:57.605Z,1004.44
2022-12-07T00:35:30.555Z,1004.44
2022-12-07T00:36:01.577Z,1004.54
2022-12-07T00:36:34.966Z,1004.64
2022-12-07T00:37:05.477Z,1004.64
2022-12-07T00:37:33.948Z,1004.64
2022-12-07T00:37:53.590Z,1004.64
2022-12-07T00:38:25.691Z,1004.64
2022-12-07T00:38:58.838Z,1004.44
2022-12-07T00:39:29.503Z,1004.44
2022-12-07T00:40:02.891Z,1004.54
2022-12-07T00:40:33.684Z,1004.44
2022-12-07T00:41:06.382Z,1004.44
2022-12-07T00:41:33.892Z,1004.54
2022-12-07T00:41:53.608Z,1004.54
2022-12-07T00:42:25.539Z,1004.54
2022-12-07T00:42:57.551Z,1004.44
2022-12-07T00:43:29.436Z,1004.44
2022-12-07T00:44:01.882Z,1004.54
2022-12-07T00:44:33.566Z,1004.44
2022-12-07T00:45:05.684Z,1004.44
2022-12-07T00:45:33.931Z,1004.64
2022-12-07T00:45:53.840Z,1004.64
2022-12-07T00:46:26.602Z,1004.64
2022-12-07T00:46:57.593Z,1004.54
2022-12-07T00:47:30.485Z,1004.54
2022-12-07T00:48:01.865Z,1004.54
2022-12-07T00:48:34.422Z,1004.33
2022-12-07T00:49:05.481Z,1004.33
2022-12-07T00:49:33.939Z,1004.33
2022-12-07T00:49:53.662Z,1004.33
2022-12-07T00:50:25.680Z,1004.33
2022-12-07T00:50:58.437Z,1004.13
2022-12-07T00:51:29.532Z,1004.13
2022-12-07T00:52:02.431Z,1004.44
2022-12-07T00:52:33.654Z,1004.54
2022-12-07T00:53:06.511Z,1004.54
2022-12-07T00:53:38.077Z,1004.44
2022-12-07T00:53:53.603Z,1004.44
2022-12-07T00:54:25.611Z,1004.44
2022-12-07T00:54:57.584Z,1004.54
2022-12-07T00:55:29.701Z,1004.54
2022-12-07T00:56:01.569Z,1004.23
2022-12-07T00:56:33.513Z,1004.54
2022-12-07T00:57:05.521Z,1004.54
2022-12-07T00:57:34.358Z,1004.44
2022-12-07T00:57:53.886Z,1004.44
2022-12-07T00:58:26.347Z,1004.44
2022-12-07T00:58:57.575Z,1004.33
2022-12-07T00:59:30.168Z,1004.33
2022-12-07T01:00:02.584Z,1004.54
2022-12-07T01:00:34.455Z,1004.23
2022-12-07T01:01:05.636Z,1004.23
2022-12-07T01:01:33.995Z,1004.64
2022-12-07T01:01:53.708Z,1004.64
2022-12-07T01:02:25.458Z,1004.64
2022-12-07T01:02:58.395Z,1004.33
2022-12-07T01:03:29.645Z,1004.33
2022-12-07T01:04:02.358Z,1004.54
2022-12-07T01:04:33.554Z,1004.33
2022-12-07T01:05:06.504Z,1004.33
2022-12-07T01:05:33.806Z,1004.44
2022-12-07T01:05:53.607Z,1004.44
2022-12-07T01:06:25.466Z,1004.44
2022-12-07T01:06:57.717Z,1004.33
2022-12-07T01:07:29.546Z,1004.33
2022-12-07T01:08:01.466Z,1004.33
2022-12-07T01:08:34.071Z,1004.23
2022-12-07T01:09:05.530Z,1004.23
2022-12-07T01:09:33.917Z,1004.23
2022-12-07T01:09:53.467Z,1004.23
2022-12-07T01:10:26.532Z,1004.23
2022-12-07T01:10:57.642Z,1004.54
2022-12-07T01:11:30.134Z,1004.54
2022-12-07T01:12:01.483Z,1004.44
2022-12-07T01:12:34.525Z,1004.44
2022-12-07T01:13:05.586Z,1004.44
2022-12-07T01:13:33.910Z,1004.44
2022-12-07T01:13:53.481Z,1004.44
2022-12-07T01:14:25.553Z,1004.44
2022-12-07T01:14:58.539Z,1004.44
2022-12-07T01:15:29.794Z,1004.44
2022-12-07T01:16:02.478Z,1004.44
2022-12-07T01:16:34.054Z,1004.33
2022-12-07T01:17:06.577Z,1004.33
2022-12-07T01:17:33.871Z,1004.33
2022-12-07T01:17:53.503Z,1004.33
2022-12-07T01:18:25.536Z,1004.33
2022-12-07T01:18:57.679Z,1004.44
2022-12-07T01:19:29.496Z,1004.44
2022-12-07T01:20:02.362Z,1004.54
2022-12-07T01:20:33.817Z,1004.54
2022-12-07T01:21:05.613Z,1004.54
2022-12-07T01:21:33.874Z,1004.44
2022-12-07T01:21:53.515Z,1004.44
2022-12-07T01:22:26.504Z,1004.44
2022-12-07T01:22:57.671Z,1004.54
2022-12-07T01:23:30.205Z,1004.54
2022-12-07T01:24:01.558Z,1004.44
2022-12-07T01:24:35.161Z,1004.54
2022-12-07T01:25:05.681Z,1004.54
2022-12-07T01:25:33.879Z,1004.54
2022-12-07T01:25:53.700Z,1004.54
2022-12-07T01:26:25.587Z,1004.54
2022-12-07T01:26:58.227Z,1004.54
2022-12-07T01:27:29.497Z,1004.54
2022-12-07T01:28:02.489Z,1004.54
2022-12-07T01:28:33.999Z,1004.54
2022-12-07T01:29:06.371Z,1004.54
2022-12-07T01:29:34.992Z,1004.54
2022-12-07T01:29:53.620Z,1004.54
2022-12-07T01:30:25.835Z,1004.54
2022-12-07T01:30:57.699Z,1004.44
2022-12-07T01:31:29.498Z,1004.44
2022-12-07T01:32:01.661Z,1004.64
2022-12-07T01:32:34.299Z,1004.64
2022-12-07T01:33:05.484Z,1004.64
2022-12-07T01:33:33.843Z,1004.54
2022-12-07T01:33:53.633Z,1004.54
2022-12-07T01:34:26.372Z,1004.54
2022-12-07T01:35:13.603Z,1004.64
2022-12-07T01:35:33.857Z,1004.44
2022-12-07T01:36:01.628Z,1004.44
2022-12-07T01:36:36.074Z,1004.54
2022-12-07T01:37:05.485Z,1004.54
2022-12-07T01:37:33.883Z,1004.54
2022-12-07T01:37:53.593Z,1004.54
2022-12-07T01:38:25.515Z,1004.54
2022-12-07T01:39:14.370Z,1004.44
2022-12-07T01:39:33.875Z,1004.74
2022-12-07T01:40:01.983Z,1004.74
2022-12-07T01:40:33.887Z,1004.54
2022-12-07T01:41:05.613Z,1004.54
2022-12-07T01:41:33.771Z,1004.64
2022-12-07T01:41:53.552Z,1004.64
2022-12-07T01:42:26.219Z,1004.64
2022-12-07T01:42:57.667Z,1004.44
2022-12-07T01:43:30.506Z,1004.44
2022-12-07T01:44:01.915Z,1004.54
2022-12-07T01:44:34.748Z,1004.54
2022-12-07T01:45:05.834Z,1004.54
2022-12-07T01:45:33.753Z,1004.54
2022-12-07T01:45:53.792Z,1004.54
2022-12-07T01:46:25.596Z,1004.54
2022-12-07T01:46:58.455Z,1004.54
2022-12-07T01:47:29.545Z,1004.54
2022-12-07T01:48:02.444Z,1004.54
2022-12-07T01:48:33.544Z,1004.74
2022-12-07T01:49:06.354Z,1004.74
2022-12-07T01:49:33.769Z,1004.54
2022-12-07T01:49:53.545Z,1004.54
2022-12-07T01:50:25.622Z,1004.54
2022-12-07T01:50:57.657Z,1004.54
2022-12-07T01:51:29.590Z,1004.54
2022-12-07T01:52:01.473Z,1004.74
2022-12-07T01:52:34.260Z,1004.54
2022-12-07T01:53:05.628Z,1004.54
2022-12-07T01:53:33.800Z,1004.54
2022-12-07T01:53:53.447Z,1004.54
2022-12-07T01:54:27.560Z,1004.54
2022-12-07T01:54:57.526Z,1004.44
2022-12-07T01:55:30.539Z,1004.44
2022-12-07T01:56:01.434Z,1004.64
2022-12-07T01:56:34.666Z,1004.64
2022-12-07T01:57:05.533Z,1004.64
2022-12-07T01:57:33.836Z,1004.74
2022-12-07T01:57:53.539Z,1004.74
2022-12-07T01:58:25.589Z,1004.74
2022-12-07T01:58:58.286Z,1004.54
2022-12-07T01:59:29.564Z,1004.54
2022-12-07T02:00:03.236Z,1004.54
2022-12-07T02:00:33.646Z,1004.54
2022-12-07T02:01:06.215Z,1004.54
2022-12-07T02:01:34.247Z,1004.54
2022-12-07T02:01:53.682Z,1004.54
2022-12-07T02:02:26.616Z,1004.54
2022-12-07T02:02:57.709Z,1004.54
2022-12-07T02:03:30.270Z,1004.54
2022-12-07T02:04:01.493Z,1004.44
2022-12-07T02:04:34.401Z,1004.44
2022-12-07T02:05:05.757Z,1004.44
2022-12-07T02:05:33.848Z,1004.54
2022-12-07T02:05:53.616Z,1004.54
2022-12-07T02:06:25.599Z,1004.54
2022-12-07T02:06:58.338Z,1004.54
2022-12-07T02:07:29.440Z,1004.54
2022-12-07T02:08:02.630Z,1004.44
2022-12-07T02:08:33.575Z,1004.33
2022-12-07T02:09:06.335Z,1004.33
2022-12-07T02:09:33.852Z,1004.23
2022-12-07T02:09:53.530Z,1004.23
2022-12-07T02:10:25.682Z,1004.23
2022-12-07T02:10:57.588Z,1004.33
2022-12-07T02:11:29.454Z,1004.33
2022-12-07T02:12:01.599Z,1004.44
2022-12-07T02:12:33.591Z,1004.44
2022-12-07T02:13:05.552Z,1004.44
2022-12-07T02:13:33.946Z,1004.54
2022-12-07T02:13:53.520Z,1004.54
2022-12-07T02:14:26.659Z,1004.54
2022-12-07T02:14:57.783Z,1004.44
2022-12-07T02:15:30.719Z,1004.44
2022-12-07T02:16:01.707Z,1004.13
2022-12-07T02:16:34.735Z,1004.23
2022-12-07T02:17:05.546Z,1004.23
2022-12-07T02:17:33.904Z,1004.13
2022-12-07T02:17:53.528Z,1004.13
2022-12-07T02:18:25.619Z,1004.13
2022-12-07T02:18:58.409Z,1004.33
2022-12-07T02:19:29.528Z,1004.33
2022-12-07T02:20:02.787Z,1004.33
2022-12-07T02:20:33.699Z,1004.33
2022-12-07T02:21:06.459Z,1004.33
2022-12-07T02:21:33.897Z,1004.23
2022-12-07T02:21:53.527Z,1004.23
2022-12-07T02:22:25.611Z,1004.23
2022-12-07T02:22:57.603Z,1004.33
2022-12-07T02:23:29.506Z,1004.33
2022-12-07T02:24:01.590Z,1004.23
2022-12-07T02:24:33.606Z,1004.23
2022-12-07T02:25:05.737Z,1004.23
2022-12-07T02:25:33.859Z,1004.33
2022-12-07T02:25:53.675Z,1004.33
2022-12-07T02:26:26.404Z,1004.33
2022-12-07T02:26:57.941Z,1004.33
2022-12-07T02:27:30.294Z,1004.33
2022-12-07T02:28:01.636Z,1004.33
2022-12-07T02:28:34.481Z,1004.13
2022-12-07T02:29:05.516Z,1004.13
2022-12-07T02:29:34.128Z,1004.23
2022-12-07T02:29:53.592Z,1004.23
2022-12-07T02:30:25.855Z,1004.23
2022-12-07T02:30:58.317Z,1004.44
2022-12-07T02:31:29.600Z,1004.44
2022-12-07T02:32:02.360Z,1004.54
2022-12-07T02:32:33.654Z,1004.44
2022-12-07T02:33:06.251Z,1004.44
2022-12-07T02:33:33.864Z,1004.23
2022-12-07T02:33:53.607Z,1004.23
2022-12-07T02:34:25.574Z,1004.23
2022-12-07T02:34:57.481Z,1004.33
2022-12-07T02:35:29.635Z,1004.33
2022-12-07T02:36:01.600Z,1004.64
2022-12-07T02:36:33.539Z,1004.33
2022-12-07T02:37:05.472Z,1004.33
2022-12-07T02:37:33.903Z,1004.33
2022-12-07T02:37:53.614Z,1004.33
2022-12-07T02:38:26.479Z,1004.33
2022-12-07T02:38:57.500Z,1004.44
2022-12-07T02:39:30.256Z,1004.44
2022-12-07T02:40:02.286Z,1004.33
2022-12-07T02:40:34.705Z,1004.54
2022-12-07T02:41:05.481Z,1004.54
2022-12-07T02:41:33.939Z,1004.44
2022-12-07T02:41:53.626Z,1004.44
2022-12-07T02:42:25.607Z,1004.44
2022-12-07T02:42:58.523Z,1004.54
2022-12-07T02:43:29.571Z,1004.54
2022-12-07T02:44:02.647Z,1004.23
2022-12-07T02:44:34.344Z,1004.33
2022-12-07T02:45:06.854Z,1004.33
2022-12-07T02:45:33.746Z,1004.44
2022-12-07T02:45:53.751Z,1004.44
2022-12-07T02:46:25.503Z,1004.44
2022-12-07T02:46:57.493Z,1004.23
2022-12-07T02:47:29.619Z,1004.23
2022-12-07T02:48:01.829Z,1004.23
2022-12-07T02:48:33.481Z,1004.23
2022-12-07T02:49:05.585Z,1004.23
2022-12-07T02:49:33.795Z,1004.23
2022-12-07T02:50:09.659Z,1004.23
2022-12-07T02:50:33.875Z,1004.33
2022-12-07T02:50:57.689Z,1004.33
2022-12-07T02:51:30.230Z,1004.33
2022-12-07T02:52:01.498Z,1004.23
2022-12-07T02:52:34.366Z,1004.23
2022-12-07T02:53:05.613Z,1004.23
2022-12-07T02:53:33.831Z,1004.44
2022-12-07T02:53:53.478Z,1004.44
2022-12-07T02:54:25.506Z,1004.44
2022-12-07T02:54:58.434Z,1004.54
2022-12-07T02:55:29.643Z,1004.54
2022-12-07T02:56:18.552Z,1004.44
2022-12-07T02:56:49.703Z,1004.44
2022-12-07T02:57:22.404Z,1004.44
2022-12-07T02:57:39.511Z,1004.23
2022-12-07T02:58:10.116Z,1004.23
2022-12-07T02:58:33.877Z,1004.33
2022-12-07T02:58:57.721Z,1004.33
2022-12-07T02:59:30.144Z,1004.33
2022-12-07T03:00:02.706Z,1004.23
2022-12-07T03:00:34.429Z,1004.23
2022-12-07T03:01:05.564Z,1004.23
2022-12-07T03:01:33.877Z,1004.33
2022-12-07T03:01:53.602Z,1004.33
2022-12-07T03:02:25.547Z,1004.33
2022-12-07T03:02:58.613Z,1004.33
2022-12-07T03:03:29.635Z,1004.33
2022-12-07T03:04:02.438Z,1004.54
2022-12-07T03:04:33.585Z,1004.33
2022-12-07T03:05:06.831Z,1004.33
2022-12-07T03:05:33.941Z,1004.33
2022-12-07T03:05:53.706Z,1004.33
2022-12-07T03:06:25.570Z,1004.33
2022-12-07T03:06:58.031Z,1004.23
2022-12-07T03:07:29.595Z,1004.23
2022-12-07T03:08:01.535Z,1004.33
2022-12-07T03:08:34.196Z,1004.44
2022-12-07T03:09:05.615Z,1004.44
2022-12-07T03:09:34.269Z,1004.44
2022-12-07T03:09:53.548Z,1004.44
2022-12-07T03:10:26.775Z,1004.44
2022-12-07T03:10:57.612Z,1004.33
2022-12-07T03:11:30.465Z,1004.33
2022-12-07T03:12:01.546Z,1004.13
2022-12-07T03:12:34.597Z,1004.23
2022-12-07T03:13:05.574Z,1004.23
2022-12-07T03:13:33.932Z,1004.33
2022-12-07T03:13:53.518Z,1004.33
2022-12-07T03:14:25.578Z,1004.33
2022-12-07T03:14:58.463Z,1004.23
2022-12-07T03:15:29.748Z,1004.23
2022-12-07T03:16:02.614Z,1004.23
2022-12-07T03:16:33.593Z,1004.23
2022-12-07T03:17:06.291Z,1004.23
2022-12-07T03:17:34.652Z,1004.33
2022-12-07T03:17:53.572Z,1004.33
2022-12-07T03:18:25.594Z,1004.33
2022-12-07T03:18:57.563Z,1004.33
2022-12-07T03:19:29.481Z,1004.33
2022-12-07T03:20:02.035Z,1004.03
2022-12-07T03:20:33.654Z,1004.13
2022-12-07T03:21:05.627Z,1004.13
2022-12-07T03:21:33.919Z,1004.33
2022-12-07T03:21:53.581Z,1004.33
2022-12-07T03:22:26.461Z,1004.33
2022-12-07T03:22:57.574Z,1004.23
2022-12-07T03:23:30.375Z,1004.23
2022-12-07T03:24:01.724Z,1004.44
2022-12-07T03:24:34.401Z,1004.44
2022-12-07T03:25:05.686Z,1004.44
2022-12-07T03:25:33.973Z,1004.33
2022-12-07T03:25:58.797Z,1004.33
2022-12-07T03:26:25.666Z,1004.33
2022-12-07T03:26:58.910Z,1004.33
2022-12-07T03:27:29.554Z,1004.33
2022-12-07T03:28:02.482Z,1004.33
2022-12-07T03:28:34.144Z,1004.33
2022-12-07T03:29:06.412Z,1004.33
2022-12-07T03:29:33.807Z,1004.13
2022-12-07T03:29:53.634Z,1004.13
2022-12-07T03:30:25.758Z,1004.13
2022-12-07T03:30:57.650Z,1004.44
2022-12-07T03:31:29.690Z,1004.44
2022-12-07T03:32:01.619Z,1004.13
2022-12-07T03:32:33.480Z,1004.13
2022-12-07T03:33:05.604Z,1004.13
2022-12-07T03:33:33.784Z,1004.33
2022-12-07T03:33:53.629Z,1004.33
2022-12-07T03:34:26.420Z,1004.33
2022-12-07T03:34:57.517Z,1004.23
2022-12-07T03:35:30.685Z,1004.23
2022-12-07T03:36:01.498Z,1004.33
2022-12-07T03:36:34.831Z,1004.33
2022-12-07T03:37:05.590Z,1004.33
2022-12-07T03:37:33.761Z,1004.33
2022-12-07T03:37:53.591Z,1004.33
2022-12-07T03:38:25.522Z,1004.33
2022-12-07T03:38:58.742Z,1004.23
2022-12-07T03:39:29.632Z,1004.23
2022-12-07T03:40:02.680Z,1004.13
2022-12-07T03:40:33.572Z,1004.54
2022-12-07T03:41:06.407Z,1004.54
2022-12-07T03:41:33.805Z,1004.44
2022-12-07T03:41:53.669Z,1004.44
2022-12-07T03:42:59.806Z,1004.44
2022-12-07T03:44:05.947Z,1004.44
2022-12-07T03:45:14.650Z,1004.44
2022-12-07T03:46:20.838Z,1004.44
2022-12-07T03:47:27.000Z,1004.44
2022-12-07T03:48:33.174Z,1004.44
2022-12-07T03:49:39.317Z,1004.44
2022-12-07T03:50:45.602Z,1004.44
2022-12-07T03:51:51.767Z,1004.44
2022-12-07T03:52:57.935Z,1004.44
2022-12-07T03:54:04.145Z,1004.44
2022-12-07T03:55:10.482Z,1004.44
2022-12-07T03:56:16.639Z,1004.44
2022-12-07T03:57:22.788Z,1004.44
2022-12-07T03:58:28.936Z,1004.44
2022-12-07T03:58:59.432Z,1004.33
2022-12-07T03:59:29.661Z,1004.33
2022-12-07T04:00:03.163Z,1004.03
2022-12-07T04:00:33.601Z,1004.33
2022-12-07T04:01:06.225Z,1004.33
2022-12-07T04:01:33.989Z,1004.44
2022-12-07T04:01:53.688Z,1004.44
2022-12-07T04:02:25.688Z,1004.44
2022-12-07T04:02:59.422Z,1004.33
2022-12-07T04:03:29.543Z,1004.33
2022-12-07T04:04:01.597Z,1004.33
2022-12-07T04:04:33.997Z,1004.23
2022-12-07T04:05:05.704Z,1004.23
2022-12-07T04:05:33.879Z,1004.33
2022-12-07T04:05:53.724Z,1004.33
2022-12-07T04:06:28.074Z,1004.33
2022-12-07T04:06:57.584Z,1004.33
2022-12-07T04:07:30.246Z,1004.33
2022-12-07T04:08:36.397Z,1004.33
2022-12-07T04:09:42.573Z,1004.33
2022-12-07T04:10:48.906Z,1004.33
2022-12-07T04:11:55.153Z,1004.33
2022-12-07T04:13:01.335Z,1004.33
2022-12-07T04:13:23.329Z,1004.13
2022-12-07T04:13:40.415Z,1004.23
2022-12-07T04:14:09.611Z,1004.23
2022-12-07T04:14:33.822Z,1004.13
2022-12-07T04:14:57.971Z,1004.13
2022-12-07T04:15:30.714Z,1004.13
2022-12-07T04:16:01.788Z,1004.23
2022-12-07T04:16:36.346Z,1004.23
2022-12-07T04:17:05.504Z,1004.23
2022-12-07T04:17:33.823Z,1004.13
2022-12-07T04:17:53.635Z,1004.13
2022-12-07T04:18:25.542Z,1004.13
2022-12-07T04:18:58.474Z,1004.03
2022-12-07T04:19:29.594Z,1004.03
2022-12-07T04:20:02.711Z,1004.23
2022-12-07T04:20:33.500Z,1004.13
2022-12-07T04:21:06.321Z,1004.13
2022-12-07T04:21:33.784Z,1004.03
2022-12-07T04:21:53.586Z,1004.03
2022-12-07T04:22:25.548Z,1004.03
2022-12-07T04:22:57.597Z,1004.33
2022-12-07T04:23:29.604Z,1004.33
2022-12-07T04:24:01.532Z,1004.13
2022-12-07T04:24:33.529Z,1004.03
2022-12-07T04:25:05.768Z,1004.03
2022-12-07T04:25:33.776Z,1004.13
2022-12-07T04:25:53.702Z,1004.13
2022-12-07T04:26:26.447Z,1004.13
2022-12-07T04:26:57.642Z,1004.23
2022-12-07T04:27:30.307Z,1004.23
2022-12-07T04:28:01.516Z,1004.13
2022-12-07T04:28:34.433Z,1004.23
2022-12-07T04:29:07.779Z,1004.23
2022-12-07T04:29:33.889Z,1004.44
2022-12-07T04:29:53.600Z,1004.44
2022-12-07T04:30:25.780Z,1004.44
2022-12-07T04:30:58.562Z,1004.03
2022-12-07T04:31:29.609Z,1004.03
2022-12-07T04:32:02.343Z,1004.33
2022-12-07T04:32:33.604Z,1004.33
2022-12-07T04:33:06.503Z,1004.33
2022-12-07T04:33:34.163Z,1004.23
2022-12-07T04:33:53.577Z,1004.23
2022-12-07T04:34:25.604Z,1004.23
2022-12-07T04:34:57.603Z,1004.23
2022-12-07T04:35:29.649Z,1004.23
2022-12-07T04:36:01.551Z,1004.13
2022-12-07T04:36:33.656Z,1004.03
2022-12-07T04:37:05.620Z,1004.03
2022-12-07T04:37:33.920Z,1004.23
2022-12-07T04:37:53.578Z,1004.23
2022-12-07T04:38:26.783Z,1004.23
2022-12-07T04:38:57.612Z,1004.03
2022-12-07T04:39:30.443Z,1004.03
2022-12-07T04:40:02.094Z,1004.23
2022-12-07T04:40:34.786Z,1004.03
2022-12-07T04:41:05.537Z,1004.03
2022-12-07T04:41:33.891Z,1004.13
2022-12-07T04:41:53.623Z,1004.13
2022-12-07T04:42:25.631Z,1004.13
2022-12-07T04:42:58.493Z,1004.13
2022-12-07T04:43:29.562Z,1004.13
2022-12-07T04:44:02.530Z,1004.13
2022-12-07T04:44:33.647Z,1004.13
2022-12-07T04:45:06.516Z,1004.13
2022-12-07T04:45:33.904Z,1004.23
2022-12-07T04:45:53.839Z,1004.23
2022-12-07T04:46:25.643Z,1004.23
2022-12-07T04:46:57.671Z,1004.03
2022-12-07T04:47:29.506Z,1004.03
2022-12-07T04:48:01.998Z,1004.03
2022-12-07T04:48:33.612Z,1004.03
2022-12-07T04:49:05.529Z,1004.03
2022-12-07T04:49:33.944Z,1004.13
2022-12-07T04:49:53.630Z,1004.13
2022-12-07T04:50:26.596Z,1004.13
2022-12-07T04:50:57.529Z,1004.13
2022-12-07T04:51:30.320Z,1004.13
2022-12-07T04:52:01.665Z,1004.23
2022-12-07T04:52:34.603Z,1004.13
2022-12-07T04:53:05.541Z,1004.13
2022-12-07T04:53:33.961Z,1004.13
2022-12-07T04:53:53.612Z,1004.13
2022-12-07T04:54:25.658Z,1004.13
2022-12-07T04:54:58.409Z,1004.03
2022-12-07T04:55:29.853Z,1004.03
2022-12-07T04:56:02.482Z,1004.03
2022-12-07T04:56:34.316Z,1004.13
2022-12-07T04:57:06.289Z,1004.13
2022-12-07T04:57:33.922Z,1004.03
2022-12-07T04:57:53.642Z,1004.03
2022-12-07T04:58:25.618Z,1004.03
2022-12-07T04:58:57.549Z,1004.13
2022-12-07T04:59:29.612Z,1004.13
2022-12-07T05:00:02.809Z,1004.23
2022-12-07T05:00:33.618Z,1003.93
2022-12-07T05:01:05.561Z,1003.93
2022-12-07T05:01:33.815Z,1004.23
2022-12-07T05:01:53.714Z,1004.23
2022-12-07T05:02:26.436Z,1004.23
2022-12-07T05:02:57.556Z,1004.13
2022-12-07T05:03:30.803Z,1004.13
2022-12-07T05:04:01.695Z,1004.03
2022-12-07T05:04:34.449Z,1004.03
2022-12-07T05:05:05.731Z,1004.03
2022-12-07T05:05:33.775Z,1004.13
2022-12-07T05:05:53.741Z,1004.13
2022-12-07T05:06:25.563Z,1004.13
2022-12-07T05:06:58.601Z,1004.23
2022-12-07T05:07:29.606Z,1004.23
2022-12-07T05:08:03.421Z,1004.23
2022-12-07T05:08:34.042Z,1004.13
2022-12-07T05:09:06.575Z,1004.13
2022-12-07T05:09:34.547Z,1004.13
2022-12-07T05:09:53.665Z,1004.13
2022-12-07T05:10:25.738Z,1004.13
2022-12-07T05:11:14.505Z,1004.13
2022-12-07T05:11:33.951Z,1004.13
2022-12-07T05:12:01.619Z,1004.13
2022-12-07T05:12:33.578Z,1003.93
2022-12-07T05:13:05.597Z,1003.93
2022-12-07T05:13:35.857Z,1004.13
2022-12-07T05:13:53.605Z,1004.13
2022-12-07T05:14:26.347Z,1004.13
2022-12-07T05:14:57.625Z,1004.03
2022-12-07T05:15:30.870Z,1004.03
2022-12-07T05:16:01.850Z,1004.23
2022-12-07T05:16:34.735Z,1004.23
2022-12-07T05:17:05.606Z,1004.23
2022-12-07T05:17:33.838Z,1004.23
2022-12-07T05:17:53.624Z,1004.23
2022-12-07T05:18:25.518Z,1004.23
2022-12-07T05:18:58.582Z,1004.33
2022-12-07T05:19:29.588Z,1004.33
2022-12-07T05:20:02.899Z,1004.13
2022-12-07T05:20:37.868Z,1004.13
2022-12-07T05:21:06.319Z,1004.13
2022-12-07T05:21:34.391Z,1004.13
2022-12-07T05:21:53.567Z,1004.13
2022-12-07T05:22:25.543Z,1004.13
2022-12-07T05:22:57.605Z,1004.13
2022-12-07T05:23:29.627Z,1004.13
2022-12-07T05:24:01.520Z,1004.13
2022-12-07T05:24:33.613Z,1004.23
2022-12-07T05:25:05.764Z,1004.23
2022-12-07T05:25:34.672Z,1004.03
2022-12-07T05:25:53.700Z,1004.03
2022-12-07T05:26:26.525Z,1004.03
2022-12-07T05:26:57.653Z,1004.03
2022-12-07T05:27:30.366Z,1004.03
2022-12-07T05:28:01.542Z,1004.13
2022-12-07T05:28:34.508Z,1004.13
2022-12-07T05:29:05.624Z,1004.13
2022-12-07T05:29:33.935Z,1004.13
2022-12-07T05:29:53.533Z,1004.13
2022-12-07T05:30:25.742Z,1004.13
2022-12-07T05:30:59.914Z,1004.13
2022-12-07T05:31:29.675Z,1004.13
2022-12-07T05:32:02.493Z,1004.13
2022-12-07T05:32:33.646Z,1004.23
2022-12-07T05:33:06.296Z,1004.23
2022-12-07T05:33:49.607Z,1003.93
2022-12-07T05:34:10.478Z,1003.93
2022-12-07T05:34:33.940Z,1004.23
2022-12-07T05:34:57.743Z,1004.23
2022-12-07T05:35:29.849Z,1004.23
2022-12-07T05:36:01.593Z,1004.13
2022-12-07T05:36:33.692Z,1004.13
2022-12-07T05:37:05.677Z,1004.13
2022-12-07T05:37:34.709Z,1004.33
2022-12-07T05:37:53.573Z,1004.33
2022-12-07T05:38:26.846Z,1004.33
2022-12-07T05:38:57.713Z,1004.13
2022-12-07T05:39:30.296Z,1004.13
2022-12-07T05:40:02.095Z,1004.03
2022-12-07T05:40:34.647Z,1004.23
2022-12-07T05:41:05.632Z,1004.23
2022-12-07T05:41:33.981Z,1004.03
2022-12-07T05:41:53.605Z,1004.03
2022-12-07T05:42:25.667Z,1004.03
2022-12-07T05:43:03.976Z,1004.13
2022-12-07T05:43:29.652Z,1004.13
2022-12-07T05:44:02.646Z,1004.13
2022-12-07T05:44:33.720Z,1004.13
2022-12-07T05:45:07.210Z,1004.13
2022-12-07T05:45:34.530Z,1004.13
2022-12-07T05:45:53.749Z,1004.13
2022-12-07T05:46:25.614Z,1004.13
2022-12-07T05:46:57.661Z,1004.13
2022-12-07T05:47:29.549Z,1004.13
2022-12-07T05:48:01.975Z,1004.13
2022-12-07T05:48:33.648Z,1003.83
2022-12-07T05:49:05.551Z,1003.83
2022-12-07T05:49:33.892Z,1003.83
2022-12-07T05:49:53.559Z,1003.83
2022-12-07T05:50:26.447Z,1003.83
2022-12-07T05:50:57.674Z,1004.13
2022-12-07T05:51:30.334Z,1004.13
2022-12-07T05:52:01.649Z,1004.13
2022-12-07T05:52:34.757Z,1003.93
2022-12-07T05:53:05.546Z,1003.93
2022-12-07T05:53:33.947Z,1004.13
2022-12-07T05:53:53.658Z,1004.13
2022-12-07T05:54:25.638Z,1004.13
2022-12-07T05:54:58.490Z,1004.13
2022-12-07T05:55:29.642Z,1004.13
2022-12-07T05:56:02.589Z,1004.23
2022-12-07T05:56:33.644Z,1004.03
2022-12-07T05:57:06.308Z,1004.03
2022-12-07T05:57:33.948Z,1004.13
2022-12-07T05:57:53.650Z,1004.13
2022-12-07T05:58:25.654Z,1004.13
2022-12-07T05:58:57.576Z,1004.13
2022-12-07T05:59:29.594Z,1004.13
2022-12-07T06:00:02.976Z,1004.03
2022-12-07T06:00:34.053Z,1004.03
2022-12-07T06:01:05.528Z,1004.03
2022-12-07T06:01:34.205Z,1003.83
2022-12-07T06:01:53.797Z,1003.83
2022-12-07T06:02:26.335Z,1003.83
2022-12-07T06:02:57.700Z,1004.03
2022-12-07T06:03:30.464Z,1004.03
2022-12-07T06:04:01.640Z,1004.03
2022-12-07T06:04:34.390Z,1004.03
2022-12-07T06:05:05.685Z,1004.03
2022-12-07T06:05:34.003Z,1003.93
2022-12-07T06:05:53.884Z,1003.93
2022-12-07T06:06:25.759Z,1003.93
2022-12-07T06:06:58.389Z,1004.13
2022-12-07T06:07:29.576Z,1004.13
2022-12-07T06:08:05.920Z,1004.03
2022-12-07T06:08:33.714Z,1003.93
2022-12-07T06:09:06.387Z,1003.93
2022-12-07T06:09:33.961Z,1004.03
2022-12-07T06:09:53.629Z,1004.03
2022-12-07T06:10:25.745Z,1004.03
2022-12-07T06:10:57.537Z,1004.23
2022-12-07T06:11:29.647Z,1004.23
2022-12-07T06:12:01.633Z,1004.03
2022-12-07T06:12:33.654Z,1003.93
2022-12-07T06:13:05.561Z,1003.93
2022-12-07T06:13:33.807Z,1004.23